Time;durP1;ratioP1;P1;durP2;ratioP2;P2;SDS_P1;SDS_P2;PMS_P1;PMS_P2;Temp;Humidity;BMP_temperature;BMP_pressure;BME280_temperature;BME280_humidity;BME280_pressure;Samples;Min_cycle;Max_cycle;Signal;HPM_P1;HPM_P2
2023/03/23 00:02:24;;;;;;;1999.90;697.07;;;12.00;99.90;;;;;;5091303;28;20212;-51
2023/03/23 00:04:52;;;;;;;1727.67;350.57;;;12.00;99.90;;;;;;5088585;28;20220;-52
2023/03/23 00:07:21;;;;;;;1999.90;576.23;;;12.00;99.90;;;;;;5091254;28;20247;-51
2023/03/23 00:09:52;;;;;;;1999.90;446.40;;;11.90;99.90;;;;;;5080674;28;20234;-51
2023/03/23 00:12:21;;;;;;;1893.57;427.40;;;11.90;99.90;;;;;;5091143;28;20800;-51
2023/03/23 00:14:53;;;;;;;1999.90;481.07;;;11.90;99.90;;;;;;5091301;28;20276;-52
2023/03/23 00:17:20;;;;;;;1999.90;601.50;;;12.00;99.90;;;;;;5064136;28;20208;-51
2023/03/23 00:19:48;;;;;;;1648.13;326.07;;;11.90;99.90;;;;;;5082386;28;20581;-51
2023/03/23 00:22:16;;;;;;;736.40;167.97;;;11.90;99.90;;;;;;5085989;28;20227;-51
2023/03/23 00:24:44;;;;;;;1999.90;452.47;;;11.90;99.90;;;;;;5091414;28;20770;-52
2023/03/23 00:27:14;;;;;;;1889.17;417.67;;;11.90;99.90;;;;;;5091369;28;20215;-50
2023/03/23 00:29:41;;;;;;;1747.87;377.57;;;11.90;99.90;;;;;;5087932;28;20245;-51
2023/03/23 00:32:12;;;;;;;1999.90;497.83;;;11.80;99.90;;;;;;5083882;28;20218;-51
2023/03/23 00:34:40;;;;;;;1999.90;756.67;;;11.70;99.90;;;;;;5090882;28;20227;-52
2023/03/23 00:37:07;;;;;;;1999.90;427.57;;;11.70;99.90;;;;;;5091043;28;20233;-52
2023/03/23 00:39:36;;;;;;;1999.90;556.80;;;11.70;99.90;;;;;;5090749;28;20248;-51
2023/03/23 00:42:04;;;;;;;1999.90;663.03;;;11.60;99.90;;;;;;5090730;28;20234;-51
2023/03/23 00:44:34;;;;;;;1999.90;490.30;;;11.60;99.90;;;;;;5090778;28;20230;-51
2023/03/23 00:47:01;;;;;;;1379.73;283.93;;;11.60;99.90;;;;;;5082841;28;20240;-51
2023/03/23 00:49:30;;;;;;;1999.90;832.93;;;11.60;99.90;;;;;;5085660;28;20791;-52
2023/03/23 00:51:59;;;;;;;1999.90;533.63;;;11.50;99.90;;;;;;5090443;28;20196;-51
2023/03/23 00:54:26;;;;;;;1999.90;641.20;;;11.50;99.90;;;;;;5090349;28;20251;-51
2023/03/23 00:56:54;;;;;;;1999.90;500.77;;;11.60;99.90;;;;;;5090533;28;20214;-51
2023/03/23 00:59:22;;;;;;;1675.13;287.00;;;11.60;99.90;;;;;;5085219;28;20227;-51
2023/03/23 01:01:50;;;;;;;1999.90;876.90;;;11.60;99.90;;;;;;5092711;28;20231;-52
2023/03/23 01:04:18;;;;;;;1999.90;624.13;;;11.50;99.90;;;;;;5093041;28;20331;-51
2023/03/23 01:06:50;;;;;;;1999.90;770.27;;;11.60;99.90;;;;;;5093912;28;20239;-51
2023/03/23 01:09:19;;;;;;;1999.90;450.80;;;11.60;99.90;;;;;;5085076;28;20741;-51
2023/03/23 01:11:47;;;;;;;1999.90;896.60;;;11.60;99.90;;;;;;5093946;28;20707;-51
2023/03/23 01:14:15;;;;;;;1999.90;755.77;;;11.50;99.90;;;;;;5094107;28;20235;-51
2023/03/23 01:16:42;;;;;;;1999.90;379.40;;;11.50;99.90;;;;;;5093718;28;20208;-51
2023/03/23 01:19:09;;;;;;;1999.90;402.27;;;11.50;99.90;;;;;;5090406;28;20247;-51
2023/03/23 01:21:37;;;;;;;1999.90;584.70;;;11.50;99.90;;;;;;5083468;28;20231;-51
2023/03/23 01:24:06;;;;;;;1999.90;492.80;;;11.50;99.90;;;;;;5090244;28;20219;-52
2023/03/23 01:26:33;;;;;;;1999.90;466.93;;;11.50;99.90;;;;;;5082584;28;20581;-52
2023/03/23 01:29:00;;;;;;;1999.90;584.27;;;11.50;99.90;;;;;;5084218;28;20235;-52
2023/03/23 01:31:27;;;;;;;1216.60;341.10;;;11.50;99.90;;;;;;5093772;28;20208;-51
2023/03/23 01:33:55;;;;;;;1999.90;764.43;;;11.40;99.90;;;;;;5090752;28;20221;-51
2023/03/23 01:36:25;;;;;;;1821.33;334.30;;;11.40;99.90;;;;;;5093511;28;20291;-51
2023/03/23 01:38:52;;;;;;;1999.90;762.83;;;11.40;99.90;;;;;;5093608;28;20216;-51
2023/03/23 01:41:21;;;;;;;1999.90;674.43;;;11.30;99.90;;;;;;5093326;28;20215;-51
2023/03/23 01:43:58;;;;;;;1999.90;926.37;;;11.30;99.90;;;;;;5093443;28;20243;-51
2023/03/23 01:46:27;;;;;;;1999.90;942.57;;;11.20;99.90;;;;;;5072053;28;20223;-51
2023/03/23 01:48:55;;;;;;;1999.90;920.40;;;11.20;99.90;;;;;;5072003;28;20208;-51
2023/03/23 01:51:22;;;;;;;1999.90;423.57;;;11.20;99.90;;;;;;5073186;28;20291;-52
2023/03/23 01:53:55;;;;;;;1999.90;389.27;;;11.30;99.90;;;;;;5072739;28;20243;-52
2023/03/23 01:56:27;;;;;;;1999.90;968.87;;;11.20;99.90;;;;;;5072905;28;20220;-52
2023/03/23 01:58:55;;;;;;;1999.90;742.13;;;11.20;99.90;;;;;;5073100;28;20284;-52
2023/03/23 02:01:24;;;;;;;1999.90;541.47;;;11.20;99.90;;;;;;5073010;28;20223;-52
2023/03/23 02:03:53;;;;;;;1999.90;692.33;;;11.20;99.90;;;;;;5072494;28;20300;-51
2023/03/23 02:06:20;;;;;;;1999.90;436.43;;;11.10;99.90;;;;;;5072491;28;20215;-51
2023/03/23 02:08:50;;;;;;;1999.90;599.43;;;11.10;99.90;;;;;;5072691;28;20291;-51
2023/03/23 02:11:18;;;;;;;1817.63;279.80;;;11.10;99.90;;;;;;5072590;28;20661;-51
2023/03/23 02:13:47;;;;;;;1999.90;519.77;;;11.10;99.90;;;;;;5072559;28;20243;-51
2023/03/23 02:16:22;;;;;;;1999.90;691.13;;;11.10;99.90;;;;;;5072263;28;20232;-52
2023/03/23 02:18:58;;;;;;;1999.90;761.87;;;11.10;99.90;;;;;;5072336;28;20291;-51
2023/03/23 02:22:20;;;;;;;1999.90;429.60;;;11.00;99.90;;;;;;5072469;28;20232;-52
2023/03/23 02:25:10;;;;;;;1999.90;727.97;;;11.00;99.90;;;;;;5011037;28;20632;-52
2023/03/23 02:28:11;;;;;;;1999.90;683.50;;;11.00;99.90;;;;;;5067018;28;20208;-51
2023/03/23 02:30:54;;;;;;;1999.90;544.37;;;11.00;99.90;;;;;;5066851;28;20583;-52
2023/03/23 02:33:39;;;;;;;1999.90;605.73;;;10.90;99.90;;;;;;5072400;28;20212;-51
2023/03/23 02:36:15;;;;;;;1902.03;304.80;;;11.00;99.90;;;;;;5071964;28;20285;-51
2023/03/23 02:38:50;;;;;;;1999.90;869.20;;;10.90;99.90;;;;;;5072477;28;20208;-51
2023/03/23 02:41:20;;;;;;;1993.90;285.27;;;10.90;99.90;;;;;;5072056;28;20636;-51
2023/03/23 02:43:48;;;;;;;1999.90;528.73;;;10.90;99.90;;;;;;5072079;28;20223;-51
2023/03/23 02:46:16;;;;;;;1999.90;619.77;;;10.90;99.90;;;;;;5071822;28;20717;-51
2023/03/23 02:48:48;;;;;;;1389.37;216.50;;;10.80;99.90;;;;;;5072308;28;20223;-52
2023/03/23 02:51:17;;;;;;;1999.90;477.60;;;10.80;99.90;;;;;;5071655;28;20204;-52
2023/03/23 02:53:44;;;;;;;1999.90;585.87;;;10.80;99.90;;;;;;5071507;28;20244;-51
2023/03/23 02:56:13;;;;;;;1999.90;456.67;;;10.80;99.90;;;;;;5071529;28;20263;-51
2023/03/23 02:58:40;;;;;;;1999.90;610.00;;;10.80;99.90;;;;;;5071962;28;20212;-51
2023/03/23 03:01:51;;;;;;;1999.90;365.87;;;10.80;99.90;;;;;;5071516;28;20210;-52
2023/03/23 03:04:21;;;;;;;1703.87;256.47;;;10.70;99.90;;;;;;5062275;28;20235;-52
2023/03/23 03:06:59;;;;;;;1999.90;581.57;;;10.70;99.90;;;;;;5071490;28;20207;-51
2023/03/23 03:09:36;;;;;;;1999.90;549.30;;;10.70;99.90;;;;;;5070729;28;20303;-51
2023/03/23 03:12:09;;;;;;;1999.90;309.60;;;10.70;99.90;;;;;;5071478;28;20204;-51
2023/03/23 03:14:40;;;;;;;1999.90;431.80;;;10.70;99.90;;;;;;5071259;28;20268;-51
2023/03/23 03:17:14;;;;;;;1999.90;393.77;;;10.70;99.90;;;;;;5071462;28;20689;-51
2023/03/23 03:19:47;;;;;;;1999.90;546.83;;;10.70;99.90;;;;;;5071596;28;20290;-52
2023/03/23 03:22:15;;;;;;;1463.90;151.70;;;10.60;99.90;;;;;;5070618;28;20232;-51
2023/03/23 03:24:44;;;;;;;1290.13;174.70;;;10.60;99.90;;;;;;5071326;28;20228;-51
2023/03/23 03:27:16;;;;;;;1999.90;268.93;;;10.70;99.90;;;;;;5071353;28;20574;-51
2023/03/23 03:29:47;;;;;;;1227.20;179.00;;;10.60;99.90;;;;;;5070897;28;20216;-51
2023/03/23 03:32:18;;;;;;;1999.90;465.60;;;10.60;99.90;;;;;;5071339;28;20813;-51
2023/03/23 03:34:47;;;;;;;1999.90;387.60;;;10.50;99.90;;;;;;5071191;28;20235;-51
2023/03/23 03:37:15;;;;;;;1999.90;356.20;;;10.50;99.90;;;;;;5071232;28;20215;-51
2023/03/23 03:39:42;;;;;;;1925.03;260.63;;;10.50;99.90;;;;;;5060043;28;20325;-51
2023/03/23 03:42:09;;;;;;;1900.43;227.10;;;10.50;99.90;;;;;;5070738;28;20227;-51
2023/03/23 03:44:37;;;;;;;1999.90;499.60;;;10.50;99.90;;;;;;5071265;28;20263;-51
2023/03/23 03:47:04;;;;;;;1747.97;176.70;;;10.50;99.90;;;;;;5070884;28;20211;-51
2023/03/23 03:49:31;;;;;;;1676.93;164.40;;;10.40;99.90;;;;;;5070845;28;20212;-52
2023/03/23 03:51:59;;;;;;;702.13;75.27;;;10.40;99.90;;;;;;5070960;28;20201;-52
2023/03/23 03:54:26;;;;;;;1186.70;155.10;;;10.40;99.90;;;;;;5071056;28;20228;-52
2023/03/23 03:56:57;;;;;;;1389.00;171.00;;;10.40;99.90;;;;;;5071029;28;20204;-51
2023/03/23 03:59:25;;;;;;;1228.23;152.97;;;10.40;99.90;;;;;;5071280;28;20651;-51
2023/03/23 04:01:54;;;;;;;1586.33;184.23;;;10.40;99.90;;;;;;5070802;28;20244;-51
2023/03/23 04:04:22;;;;;;;998.47;136.40;;;10.40;99.90;;;;;;5070822;28;20235;-51
2023/03/23 04:06:49;;;;;;;917.57;121.77;;;10.40;99.90;;;;;;5070645;28;20216;-51
2023/03/23 04:09:19;;;;;;;747.53;89.77;;;10.40;99.90;;;;;;5070800;28;20212;-50
2023/03/23 04:11:46;;;;;;;1038.87;126.77;;;10.40;99.90;;;;;;5070874;28;20246;-51
2023/03/23 04:14:13;;;;;;;783.60;111.57;;;10.50;99.90;;;;;;5071147;28;20220;-51
2023/03/23 04:16:40;;;;;;;1999.90;240.57;;;10.40;99.90;;;;;;5070820;28;20310;-52
2023/03/23 04:19:08;;;;;;;1190.57;162.30;;;10.40;99.90;;;;;;5070815;28;20219;-51
2023/03/23 04:21:35;;;;;;;1758.33;193.67;;;10.40;99.90;;;;;;5070747;28;20771;-51
2023/03/23 04:24:02;;;;;;;1999.90;249.13;;;10.40;99.90;;;;;;5070485;28;20670;-51
2023/03/23 04:26:32;;;;;;;977.30;139.33;;;10.30;99.90;;;;;;5070582;28;20609;-50
2023/03/23 04:28:59;;;;;;;1999.90;276.47;;;10.30;99.90;;;;;;5070880;28;20661;-50
2023/03/23 04:31:26;;;;;;;1999.90;360.50;;;10.30;99.90;;;;;;5070872;28;20262;-51
2023/03/23 04:33:53;;;;;;;1999.90;396.77;;;10.30;99.90;;;;;;5071144;28;20215;-51
2023/03/23 04:36:22;;;;;;;1718.43;196.10;;;10.20;99.90;;;;;;5074378;28;20297;-51
2023/03/23 04:38:54;;;;;;;875.80;137.70;;;10.20;99.90;;;;;;5074744;28;20220;-51
2023/03/23 04:41:21;;;;;;;1885.93;218.67;;;10.20;99.90;;;;;;5074336;28;20692;-51
2023/03/23 04:43:53;;;;;;;1599.10;252.37;;;10.20;99.90;;;;;;5074287;28;20212;-51
2023/03/23 04:46:21;;;;;;;1103.47;151.47;;;10.20;99.90;;;;;;5074280;28;20197;-51
2023/03/23 04:48:48;;;;;;;1950.83;218.57;;;10.20;99.90;;;;;;5074390;28;20200;-51
2023/03/23 04:51:15;;;;;;;1783.33;237.17;;;10.20;99.90;;;;;;5073887;28;20216;-51
2023/03/23 04:53:42;;;;;;;618.50;69.40;;;10.20;99.90;;;;;;5074150;28;20207;-51
2023/03/23 04:56:09;;;;;;;1999.90;321.20;;;10.20;99.90;;;;;;5073967;28;20236;-51
2023/03/23 04:58:36;;;;;;;568.43;82.17;;;10.20;99.90;;;;;;5073896;28;20204;-52
2023/03/23 05:01:04;;;;;;;1999.90;331.80;;;10.20;99.90;;;;;;5073871;28;20688;-50
2023/03/23 05:03:31;;;;;;;1098.67;136.50;;;10.20;99.90;;;;;;5073584;28;20221;-51
2023/03/23 05:06:01;;;;;;;1732.93;211.13;;;10.10;99.90;;;;;;5073460;28;20228;-51
2023/03/23 05:08:28;;;;;;;434.40;50.50;;;10.10;99.90;;;;;;5073989;28;20208;-51
2023/03/23 05:10:57;;;;;;;1371.47;140.97;;;10.10;99.90;;;;;;5073878;28;20218;-51
2023/03/23 05:13:24;;;;;;;1648.20;151.83;;;10.10;99.90;;;;;;5073119;28;20238;-51
2023/03/23 05:15:52;;;;;;;1612.03;195.43;;;10.10;99.90;;;;;;5073816;28;20248;-51
2023/03/23 05:18:20;;;;;;;1436.47;173.27;;;10.00;99.90;;;;;;5073307;28;20219;-51
2023/03/23 05:20:48;;;;;;;674.10;88.33;;;10.00;99.90;;;;;;5073576;28;20211;-51
2023/03/23 05:23:16;;;;;;;304.93;49.37;;;10.10;99.90;;;;;;5073472;28;20243;-51
2023/03/23 05:25:43;;;;;;;1999.90;270.27;;;10.00;99.90;;;;;;5073573;28;20256;-51
2023/03/23 05:28:11;;;;;;;801.90;119.07;;;10.00;99.90;;;;;;5073657;28;20216;-51
2023/03/23 05:30:40;;;;;;;1999.90;304.57;;;10.00;99.90;;;;;;5073497;28;20243;-50
2023/03/23 05:33:07;;;;;;;929.77;114.60;;;10.10;99.90;;;;;;5073731;28;20709;-51
2023/03/23 05:35:36;;;;;;;1999.90;424.13;;;10.00;99.90;;;;;;5073154;28;20727;-51
2023/03/23 05:38:03;;;;;;;1669.87;172.43;;;10.00;99.90;;;;;;5073660;28;20283;-50
2023/03/23 05:40:30;;;;;;;843.23;112.00;;;10.00;99.90;;;;;;5073013;28;20208;-51
2023/03/23 05:42:58;;;;;;;1646.63;213.53;;;10.00;99.90;;;;;;5073199;28;20223;-52
2023/03/23 05:45:26;;;;;;;1481.33;155.30;;;10.10;99.90;;;;;;5072967;28;20810;-51
2023/03/23 05:47:53;;;;;;;615.97;78.77;;;10.10;99.90;;;;;;5073328;28;20208;-51
2023/03/23 05:50:20;;;;;;;1204.73;144.37;;;10.10;99.90;;;;;;5073175;28;20212;-51
2023/03/23 05:52:48;;;;;;;455.27;58.90;;;10.20;99.90;;;;;;5072743;28;20240;-51
2023/03/23 05:55:15;;;;;;;1489.10;168.93;;;10.10;99.90;;;;;;5073332;28;20224;-52
2023/03/23 05:57:42;;;;;;;1999.90;271.17;;;10.20;99.90;;;;;;5073140;28;20250;-51
2023/03/23 06:00:19;;;;;;;1441.33;130.37;;;10.20;99.90;;;;;;5072839;28;20691;-51
2023/03/23 06:02:47;;;;;;;1999.90;275.57;;;10.20;99.90;;;;;;5072978;28;20284;-51
2023/03/23 06:05:15;;;;;;;1999.90;443.63;;;10.20;99.90;;;;;;5072317;28;20247;-50
2023/03/23 06:07:43;;;;;;;1936.10;285.37;;;10.20;99.90;;;;;;5073040;28;20304;-52
2023/03/23 06:10:11;;;;;;;885.07;108.53;;;10.20;99.90;;;;;;5072519;28;20206;-52
2023/03/23 06:12:39;;;;;;;1999.90;253.07;;;10.30;99.90;;;;;;5072878;28;20244;-52
2023/03/23 06:15:08;;;;;;;1999.90;253.83;;;10.30;99.90;;;;;;5072613;28;20589;-51
2023/03/23 06:17:36;;;;;;;779.37;78.63;;;10.30;99.90;;;;;;5072901;28;20691;-51
2023/03/23 06:20:09;;;;;;;1191.37;143.30;;;10.30;99.90;;;;;;5072135;28;20217;-51
2023/03/23 06:22:37;;;;;;;1253.00;152.80;;;10.30;99.90;;;;;;5062152;28;20257;-51
2023/03/23 06:25:06;;;;;;;1252.17;144.47;;;10.40;99.90;;;;;;5066775;28;20701;-52
2023/03/23 06:27:35;;;;;;;1931.47;223.60;;;10.40;99.90;;;;;;5072421;28;20272;-51
2023/03/23 06:30:02;;;;;;;1999.90;264.63;;;10.40;99.90;;;;;;5072348;28;20609;-51
2023/03/23 06:32:32;;;;;;;1579.00;166.93;;;10.40;99.90;;;;;;5071883;28;20684;-52
2023/03/23 06:34:59;;;;;;;1490.80;158.43;;;10.40;99.90;;;;;;5072212;28;20680;-51
2023/03/23 06:37:25;;;;;;;1520.20;207.67;;;10.40;99.90;;;;;;5071355;28;20242;-51
2023/03/23 06:39:53;;;;;;;1748.17;198.37;;;10.50;99.90;;;;;;5072357;28;20212;-51
2023/03/23 06:42:20;;;;;;;1999.90;358.33;;;10.50;99.90;;;;;;5071779;28;20712;-52
2023/03/23 06:44:49;;;;;;;1756.10;195.37;;;10.60;99.90;;;;;;5072387;28;20755;-51
2023/03/23 06:47:15;;;;;;;1999.90;312.93;;;10.60;99.90;;;;;;5071950;28;20285;-51
2023/03/23 06:49:42;;;;;;;1999.90;317.20;;;10.60;99.90;;;;;;5072209;28;20566;-52
2023/03/23 06:52:10;;;;;;;1577.90;199.63;;;10.60;99.90;;;;;;5072174;28;20222;-51
2023/03/23 06:54:37;;;;;;;1604.43;235.43;;;10.60;99.90;;;;;;5071608;28;20223;-51
2023/03/23 06:57:04;;;;;;;166.03;35.20;;;10.70;99.90;;;;;;5071323;28;20239;-51
2023/03/23 06:59:30;;;;;;;1958.50;265.83;;;10.70;99.90;;;;;;5071656;28;20219;-51
2023/03/23 07:01:59;;;;;;;1999.90;284.30;;;10.70;99.90;;;;;;5071537;28;20219;-52
2023/03/23 07:04:26;;;;;;;1931.77;245.73;;;10.70;99.90;;;;;;5071292;28;20240;-51
2023/03/23 07:06:53;;;;;;;1999.90;401.17;;;10.70;99.90;;;;;;5071748;28;20232;-52
2023/03/23 07:09:20;;;;;;;1999.90;233.63;;;10.70;99.90;;;;;;5071694;28;20212;-51
2023/03/23 07:11:47;;;;;;;1999.90;300.50;;;10.60;99.90;;;;;;5071499;28;20220;-51
2023/03/23 07:14:15;;;;;;;1999.90;389.87;;;10.60;99.90;;;;;;5071829;28;20791;-51
2023/03/23 07:16:42;;;;;;;1999.90;359.63;;;10.60;99.90;;;;;;5071463;28;20223;-51
2023/03/23 07:19:11;;;;;;;1896.33;233.77;;;10.60;99.90;;;;;;5071542;28;20212;-52
2023/03/23 07:21:37;;;;;;;1999.90;261.03;;;10.70;99.90;;;;;;5071101;28;20295;-51
2023/03/23 07:24:05;;;;;;;1854.63;196.73;;;10.60;99.90;;;;;;5071117;28;20236;-52
2023/03/23 07:26:32;;;;;;;1999.90;511.63;;;10.60;99.90;;;;;;5071643;28;20214;-51
2023/03/23 07:28:59;;;;;;;1999.90;319.63;;;10.70;99.90;;;;;;5071392;28;20570;-51
2023/03/23 07:31:26;;;;;;;1999.90;301.07;;;10.70;99.90;;;;;;5070986;28;20216;-51
2023/03/23 07:33:53;;;;;;;1775.47;206.50;;;10.80;99.90;;;;;;5071154;28;20200;-52
2023/03/23 07:36:21;;;;;;;1999.90;214.17;;;10.80;99.90;;;;;;5071406;28;20318;-51
2023/03/23 07:38:49;;;;;;;1798.50;209.00;;;10.90;99.90;;;;;;5071294;28;20227;-51
2023/03/23 07:41:17;;;;;;;1999.90;491.37;;;11.00;99.90;;;;;;5071074;28;20672;-51
2023/03/23 07:43:44;;;;;;;1999.90;315.07;;;11.10;99.90;;;;;;5070914;28;20224;-52
2023/03/23 07:46:11;;;;;;;1999.90;410.67;;;11.30;99.90;;;;;;5070866;28;20263;-52
2023/03/23 07:48:38;;;;;;;1999.90;518.80;;;11.40;99.90;;;;;;5070872;28;20208;-52
2023/03/23 07:51:06;;;;;;;1980.33;218.20;;;11.40;99.90;;;;;;5070988;28;20227;-52
2023/03/23 07:53:35;;;;;;;1999.90;393.00;;;11.50;99.90;;;;;;5071067;28;20591;-51
2023/03/23 07:56:03;;;;;;;1999.90;363.67;;;11.50;99.90;;;;;;5070875;28;20266;-51
2023/03/23 07:58:30;;;;;;;1999.90;674.87;;;11.50;99.90;;;;;;5070937;28;20208;-52
2023/03/23 08:00:57;;;;;;;1999.90;401.03;;;11.50;99.90;;;;;;5071010;28;20211;-51
2023/03/23 08:03:26;;;;;;;1699.10;201.97;;;11.60;99.90;;;;;;5070592;28;20228;-51
2023/03/23 08:05:53;;;;;;;1999.90;371.10;;;11.60;99.90;;;;;;5070994;28;20782;-52
2023/03/23 08:08:20;;;;;;;1296.43;159.83;;;11.70;99.90;;;;;;5070543;28;20216;-52
2023/03/23 08:10:48;;;;;;;1999.90;648.10;;;11.80;99.90;;;;;;5071108;28;20207;-52
2023/03/23 08:13:15;;;;;;;1999.90;354.53;;;11.90;99.90;;;;;;5070433;28;20333;-52
2023/03/23 08:15:43;;;;;;;1999.90;421.40;;;11.90;99.90;;;;;;5070652;28;20224;-51
2023/03/23 08:18:10;;;;;;;1999.90;450.73;;;11.90;99.90;;;;;;5070985;28;20277;-51
2023/03/23 08:20:37;;;;;;;1999.90;592.23;;;11.90;99.90;;;;;;5070361;28;20218;-51
2023/03/23 08:23:06;;;;;;;1999.90;263.67;;;11.80;99.90;;;;;;5070737;28;20318;-51
2023/03/23 08:25:33;;;;;;;1999.90;359.00;;;11.90;99.90;;;;;;5070754;28;20850;-51
2023/03/23 08:28:02;;;;;;;1708.93;200.50;;;12.00;99.90;;;;;;5070696;28;20204;-52
2023/03/23 08:30:32;;;;;;;1999.90;408.50;;;12.00;99.90;;;;;;5070764;28;20859;-51
2023/03/23 08:33:00;;;;;;;1999.90;252.73;;;12.00;99.90;;;;;;5070454;28;20216;-51
2023/03/23 08:35:28;;;;;;;1999.90;215.73;;;12.10;99.90;;;;;;5070271;28;20260;-52
2023/03/23 08:37:55;;;;;;;1999.90;436.50;;;12.20;99.90;;;;;;5070209;28;20212;-51
2023/03/23 08:40:23;;;;;;;1999.90;278.23;;;12.20;99.90;;;;;;5070404;28;20212;-52
2023/03/23 08:42:51;;;;;;;1999.90;348.33;;;12.30;99.90;;;;;;5070473;28;20296;-52
2023/03/23 08:45:22;;;;;;;1999.90;302.47;;;12.50;99.90;;;;;;5070407;28;20238;-51
2023/03/23 08:47:51;;;;;;;1999.90;371.73;;;12.60;99.90;;;;;;5070504;28;20204;-51
2023/03/23 08:50:22;;;;;;;1999.90;389.00;;;12.70;99.90;;;;;;5070573;28;20308;-53
2023/03/23 08:52:50;;;;;;;1999.90;660.60;;;12.70;99.90;;;;;;5063409;28;20611;-51
2023/03/23 08:55:18;;;;;;;1999.90;569.93;;;12.80;99.90;;;;;;5071270;28;20232;-51
2023/03/23 08:57:45;;;;;;;1999.90;427.47;;;12.90;99.90;;;;;;5081567;28;20723;-51
2023/03/23 09:00:15;;;;;;;1999.90;597.37;;;13.00;99.90;;;;;;5071018;28;20265;-50
2023/03/23 09:02:45;;;;;;;1999.90;326.27;;;12.90;99.90;;;;;;5069984;28;20748;-51
2023/03/23 09:05:12;;;;;;;1999.90;576.33;;;13.00;99.90;;;;;;5063821;28;20234;-51
2023/03/23 09:07:39;;;;;;;1999.90;408.07;;;13.20;99.90;;;;;;5069947;28;20708;-51
2023/03/23 09:10:08;;;;;;;1999.90;742.57;;;13.40;99.90;;;;;;5070274;28;20214;-52
2023/03/23 09:12:35;;;;;;;1999.90;536.63;;;13.30;99.90;;;;;;5070372;28;20285;-51
2023/03/23 09:15:08;;;;;;;1999.90;671.50;;;13.40;99.90;;;;;;5070217;28;20224;-51
2023/03/23 09:17:37;;;;;;;1999.90;748.83;;;13.50;99.90;;;;;;5070018;28;20204;-51
2023/03/23 09:20:11;;;;;;;1999.90;565.77;;;13.30;99.90;;;;;;5071025;28;20226;-51
2023/03/23 09:22:39;;;;;;;1999.90;655.93;;;13.30;99.90;;;;;;5073739;28;20205;-52
2023/03/23 09:25:08;;;;;;;1999.90;948.90;;;13.40;99.90;;;;;;5073923;28;20573;-51
2023/03/23 09:27:36;;;;;;;1999.90;824.00;;;13.50;99.90;;;;;;5073710;28;20212;-50
2023/03/23 09:30:05;;;;;;;1999.90;768.00;;;13.50;99.90;;;;;;5073403;28;20208;-51
2023/03/23 09:32:34;;;;;;;1999.90;754.20;;;13.60;99.90;;;;;;5073476;28;20204;-51
2023/03/23 09:35:02;;;;;;;1999.90;489.05;;;13.60;99.90;;;;;;5073363;28;20231;-51
2023/03/23 09:37:31;;;;;;;1999.90;532.33;;;13.70;99.90;;;;;;5073513;28;20273;-51
2023/03/23 09:39:57;;;;;;;1999.90;736.22;;;13.80;99.90;;;;;;5073586;28;20208;-51
2023/03/23 09:42:40;;;;;;;1999.90;674.28;;;13.90;99.90;;;;;;5073027;28;20311;-51
2023/03/23 09:45:15;;;;;;;1999.90;804.78;;;13.90;99.90;;;;;;5064125;28;20259;-50
2023/03/23 09:47:50;;;;;;;1999.90;724.47;;;13.90;99.90;;;;;;5073267;28;20607;-51
2023/03/23 09:50:20;;;;;;;1999.90;781.08;;;13.90;99.90;;;;;;5065535;28;20207;-51
2023/03/23 09:52:52;;;;;;;1999.90;814.42;;;14.00;99.90;;;;;;5073044;28;20249;-51
2023/03/23 09:55:21;;;;;;;1999.90;999.90;;;14.10;99.90;;;;;;5072978;28;20231;-51
2023/03/23 09:57:56;;;;;;;1999.90;652.72;;;14.00;99.90;;;;;;5072866;28;20236;-51
2023/03/23 10:00:27;;;;;;;1999.90;759.70;;;13.90;99.90;;;;;;5059842;28;20286;-51
2023/03/23 10:03:02;;;;;;;1999.90;779.67;;;13.90;99.90;;;;;;5072879;28;20218;-50
2023/03/23 10:05:34;;;;;;;1999.90;736.45;;;14.00;99.90;;;;;;5059532;28;20231;-51
2023/03/23 10:08:09;;;;;;;1999.90;982.28;;;13.90;99.90;;;;;;5066583;28;20215;-51
2023/03/23 10:10:46;;;;;;;1999.90;605.95;;;13.90;99.90;;;;;;5072962;28;20692;-51
2023/03/23 10:13:23;;;;;;;1999.90;764.77;;;13.70;99.90;;;;;;5072630;28;20222;-51
2023/03/23 10:15:51;;;;;;;1999.90;778.57;;;13.70;99.90;;;;;;5072898;28;20788;-51
2023/03/23 10:18:23;;;;;;;1999.90;513.30;;;13.60;99.90;;;;;;5072443;28;20694;-51
2023/03/23 10:20:56;;;;;;;1999.90;520.70;;;13.80;99.90;;;;;;5072956;28;20254;-51
2023/03/23 10:23:53;;;;;;;1999.90;759.00;;;13.80;99.90;;;;;;5072421;28;20295;-51
2023/03/23 10:26:33;;;;;;;1999.90;449.65;;;13.80;99.90;;;;;;5072826;28;20211;-51
2023/03/23 10:29:10;;;;;;;1999.90;393.20;;;13.60;99.90;;;;;;5072702;28;20246;-52
2023/03/23 10:31:41;;;;;;;1999.90;542.40;;;13.50;99.90;;;;;;5071496;28;20208;-50
2023/03/23 10:34:13;;;;;;;1999.90;625.20;;;13.50;99.90;;;;;;5072013;28;20689;-51
2023/03/23 10:36:54;;;;;;;1999.90;596.30;;;13.50;99.90;;;;;;5072173;28;20219;-51
2023/03/23 10:39:25;;;;;;;1999.90;359.03;;;13.50;99.90;;;;;;5072240;28;20214;-51
2023/03/23 10:41:52;;;;;;;1999.90;450.93;;;13.50;99.90;;;;;;5072163;28;20214;-51
2023/03/23 10:44:21;;;;;;;1999.90;492.20;;;13.50;99.90;;;;;;5071980;28;20236;-51
2023/03/23 10:46:57;;;;;;;1999.90;500.80;;;13.70;99.90;;;;;;5072587;28;20263;-50
2023/03/23 10:49:26;;;;;;;1999.90;673.10;;;13.90;99.90;;;;;;5072015;28;20215;-51
2023/03/23 10:52:04;;;;;;;1999.90;622.08;;;14.10;99.90;;;;;;5071894;28;20823;-51
2023/03/23 10:54:39;;;;;;;1999.90;923.15;;;14.30;99.90;;;;;;5071599;28;20315;-50
2023/03/23 10:57:20;;;;;;;1999.90;680.78;;;14.30;99.90;;;;;;5072011;28;20207;-51
2023/03/23 10:59:47;;;;;;;1999.90;942.70;;;14.30;99.90;;;;;;5071649;28;20305;-51
2023/03/23 11:02:17;;;;;;;1999.90;856.72;;;14.30;99.90;;;;;;5071951;28;20237;-51
2023/03/23 11:04:48;;;;;;;1999.90;848.70;;;14.40;99.90;;;;;;5071451;28;20228;-50
2023/03/23 11:07:30;;;;;;;1999.90;984.40;;;14.40;99.90;;;;;;5071450;28;20300;-51
2023/03/23 11:10:09;;;;;;;1999.90;642.95;;;14.60;99.90;;;;;;5071423;28;20216;-51
2023/03/23 11:12:36;;;;;;;1999.90;895.30;;;14.70;99.90;;;;;;5071582;28;20223;-51
2023/03/23 11:15:25;;;;;;;1999.90;818.10;;;14.60;99.90;;;;;;5071436;28;20232;-51
2023/03/23 11:18:01;;;;;;;1999.90;563.28;;;14.60;99.90;;;;;;5071781;28;20205;-51
2023/03/23 11:20:31;;;;;;;1999.90;999.90;;;14.70;99.90;;;;;;5071397;28;20204;-52
2023/03/23 11:22:58;;;;;;;1999.90;749.90;;;14.60;99.90;;;;;;5071297;28;20212;-50
2023/03/23 11:25:27;;;;;;;1999.90;881.95;;;14.60;99.90;;;;;;5071084;28;20242;-50
2023/03/23 11:27:55;;;;;;;1999.90;777.33;;;14.50;99.90;;;;;;5071278;28;20579;-50
2023/03/23 11:30:27;;;;;;;1999.90;626.60;;;14.30;99.90;;;;;;5070903;28;20223;-51
2023/03/23 11:32:56;;;;;;;1999.90;830.28;;;14.30;99.90;;;;;;5071086;28;20212;-52
2023/03/23 11:35:27;;;;;;;1999.90;952.03;;;14.40;99.90;;;;;;5071274;28;20255;-51
2023/03/23 11:37:56;;;;;;;1999.90;852.65;;;14.10;99.90;;;;;;5058507;28;20841;-51
2023/03/23 11:40:25;;;;;;;1999.90;787.58;;;14.10;99.90;;;;;;5071043;28;20212;-52
2023/03/23 11:43:01;;;;;;;1999.90;821.28;;;14.10;99.90;;;;;;5070417;28;20204;-51
2023/03/23 11:45:34;;;;;;;1999.90;998.95;;;14.00;99.90;;;;;;5070860;28;20235;-51
2023/03/23 11:48:13;;;;;;;1999.90;892.92;;;13.80;99.90;;;;;;5069886;28;20282;-51
2023/03/23 11:50:50;;;;;;;1999.90;892.80;;;13.80;99.90;;;;;;5070958;28;20692;-50
2023/03/23 11:53:31;;;;;;;1999.90;975.90;;;13.60;99.90;;;;;;5070694;28;20580;-51
2023/03/23 11:56:07;;;;;;;1999.90;846.90;;;13.50;99.90;;;;;;5070632;28;20311;-51
2023/03/23 11:58:36;;;;;;;1999.90;909.90;;;13.50;99.90;;;;;;5071033;28;20236;-52
2023/03/23 12:01:11;;;;;;;1999.90;998.13;;;13.40;99.90;;;;;;5069893;28;20700;-51
2023/03/23 12:03:59;;;;;;;1999.90;730.92;;;13.40;99.90;;;;;;5070972;28;20272;-51
2023/03/23 12:06:36;;;;;;;1999.90;527.70;;;13.40;99.90;;;;;;5069089;28;20200;-51
2023/03/23 12:09:18;;;;;;;1999.90;964.17;;;13.50;99.90;;;;;;5071140;28;20243;-51
2023/03/23 12:11:53;;;;;;;1999.90;568.20;;;13.50;99.90;;;;;;5069499;28;20220;-51
2023/03/23 12:14:30;;;;;;;1999.90;485.48;;;13.60;99.90;;;;;;5070775;28;20259;-50
2023/03/23 12:17:12;;;;;;;1999.90;924.50;;;13.70;99.90;;;;;;5069491;28;20257;-50